Time;durP1;ratioP1;P1;durP2;ratioP2;P2;SDS_P1;SDS_P2;PMS_P1;PMS_P2;Temp;Humidity;BMP_temperature;BMP_pressure;BME280_temperature;BME280_humidity;BME280_pressure;Samples;Min_cycle;Max_cycle;Signal;HPM_P1;HPM_P2
2021/10/27 00:03:29;;;;;;;43.87;40.70;;;;;;;15.86;100.00;102053.86;1940973;74;33170;-71
2021/10/27 00:08:53;;;;;;;42.60;39.37;;;;;;;15.90;100.00;102041.50;1940996;74;32995;-71
2021/10/27 00:14:18;;;;;;;43.37;39.93;;;;;;;15.97;100.00;102045.36;1941272;74;33468;-72
2021/10/27 00:19:42;;;;;;;43.60;40.47;;;;;;;15.99;100.00;102051.52;1941227;74;33074;-71
2021/10/27 00:25:09;;;;;;;42.83;39.83;;;;;;;16.05;100.00;102038.56;1941223;74;33619;-68
2021/10/27 00:30:34;;;;;;;44.07;40.60;;;;;;;16.05;100.00;102061.55;1941089;74;31151;-69
2021/10/27 00:35:58;;;;;;;46.50;43.17;;;;;;;16.07;100.00;102064.91;1941301;74;33596;-71
2021/10/27 00:41:23;;;;;;;43.40;39.70;;;;;;;16.06;100.00;102068.27;1941281;74;33496;-69
2021/10/27 00:46:59;;;;;;;44.37;40.77;;;;;;;16.06;100.00;102073.03;1941255;74;33008;-70
2021/10/27 00:52:24;;;;;;;45.20;41.93;;;;;;;15.87;100.00;102060.31;1941087;74;32988;-69
2021/10/27 00:57:50;;;;;;;42.70;39.37;;;;;;;15.76;100.00;102067.93;1941183;74;33134;-70
2021/10/27 01:03:15;;;;;;;41.63;38.20;;;;;;;15.74;100.00;102071.61;1941319;74;33007;-69
2021/10/27 01:08:40;;;;;;;42.10;38.67;;;;;;;15.80;100.00;102065.38;1941057;74;33042;-71
2021/10/27 01:14:06;;;;;;;44.03;40.87;;;;;;;15.86;100.00;102057.22;1941189;74;33036;-68
2021/10/27 01:19:34;;;;;;;40.80;37.67;;;;;;;15.88;100.00;102054.39;1941290;74;33108;-71
2021/10/27 01:25:00;;;;;;;39.97;36.87;;;;;;;15.96;100.00;102041.71;1941092;74;33119;-71
2021/10/27 01:30:26;;;;;;;42.03;38.73;;;;;;;15.93;100.00;102034.74;1941058;74;33103;-69
2021/10/27 01:35:50;;;;;;;39.73;36.73;;;;;;;15.90;100.00;102031.69;1941025;74;32992;-69
2021/10/27 01:41:15;;;;;;;43.07;39.93;;;;;;;15.93;100.00;102028.30;1941033;74;32998;-70
2021/10/27 01:46:44;;;;;;;39.83;37.13;;;;;;;15.97;100.00;102028.54;1941286;74;33062;-69
2021/10/27 01:52:29;;;;;;;39.97;36.97;;;;;;;16.02;100.00;102018.69;2009831;70;32910;-71
2021/10/27 01:57:53;;;;;;;40.53;37.83;;;;;;;16.04;100.00;101997.67;1941039;74;33136;-71
2021/10/27 02:03:18;;;;;;;40.87;37.87;;;;;;;16.05;100.00;101988.67;1941044;74;33039;-68
2021/10/27 02:09:02;;;;;;;41.17;38.43;;;;;;;16.08;100.00;101990.34;2009938;71;32897;-71
2021/10/27 02:14:27;;;;;;;41.47;38.37;;;;;;;16.15;100.00;101986.62;1941280;74;33549;-70
2021/10/27 02:19:54;;;;;;;44.50;41.40;;;;;;;16.12;100.00;101996.19;1925295;74;28086;-68
2021/10/27 02:25:20;;;;;;;44.80;41.37;;;;;;;16.10;100.00;101981.63;1941286;74;31562;-70
2021/10/27 02:30:46;;;;;;;43.20;40.20;;;;;;;16.11;100.00;101971.52;1940984;74;33044;-71
2021/10/27 02:36:10;;;;;;;42.63;39.13;;;;;;;16.13;100.00;101977.66;1941303;74;33643;-68
2021/10/27 02:41:35;;;;;;;43.03;40.17;;;;;;;16.12;100.00;101959.19;1941287;74;33584;-70
2021/10/27 02:47:01;;;;;;;41.70;38.60;;;;;;;16.08;100.00;101962.31;1941244;74;33634;-68
2021/10/27 02:52:26;;;;;;;43.27;40.47;;;;;;;16.08;100.00;101965.11;1941276;74;33572;-70
2021/10/27 02:57:50;;;;;;;42.37;39.47;;;;;;;16.05;100.00;101965.69;1941248;74;33038;-71
2021/10/27 03:03:14;;;;;;;41.20;38.57;;;;;;;15.99;100.00;101973.05;1941084;74;33128;-71
2021/10/27 03:08:38;;;;;;;42.90;39.80;;;;;;;16.02;100.00;101979.45;1941139;74;31155;-70
2021/10/27 03:14:02;;;;;;;42.23;39.20;;;;;;;15.98;100.00;101978.38;1941095;74;33014;-68
2021/10/27 03:19:27;;;;;;;44.03;40.90;;;;;;;15.89;100.00;101968.36;1941279;74;31647;-71
2021/10/27 03:24:51;;;;;;;43.20;40.23;;;;;;;15.77;100.00;101972.95;1941004;74;33063;-70
2021/10/27 03:30:16;;;;;;;42.83;39.90;;;;;;;15.73;100.00;101977.47;1941029;74;33067;-68
2021/10/27 03:35:41;;;;;;;42.43;39.40;;;;;;;15.77;100.00;101970.72;1941236;74;33694;-68
2021/10/27 03:41:05;;;;;;;44.43;41.23;;;;;;;15.77;100.00;101963.15;1940964;74;33073;-71
2021/10/27 03:46:29;;;;;;;41.47;38.67;;;;;;;15.74;100.00;101979.71;1941221;74;33068;-71
2021/10/27 03:51:55;;;;;;;40.30;37.30;;;;;;;15.82;100.00;101969.27;1941111;74;31107;-68
2021/10/27 03:57:19;;;;;;;43.00;39.90;;;;;;;15.77;100.00;101963.15;1941282;74;33681;-68
2021/10/27 04:02:44;;;;;;;41.27;38.30;;;;;;;15.83;100.00;101951.34;1878200;76;33667;-71
2021/10/27 04:08:09;;;;;;;43.00;40.03;;;;;;;15.83;100.00;101952.74;1941037;74;33120;-68
2021/10/27 04:13:35;;;;;;;42.03;39.10;;;;;;;15.76;100.00;101957.83;1941279;74;32988;-71
2021/10/27 04:19:00;;;;;;;43.03;40.23;;;;;;;15.75;100.00;101961.75;1941064;74;33002;-69
2021/10/27 04:24:24;;;;;;;41.93;39.13;;;;;;;15.71;100.00;101955.06;1941041;74;33674;-69
2021/10/27 04:29:49;;;;;;;41.77;38.97;;;;;;;15.74;100.00;101958.14;1941236;74;33123;-69
2021/10/27 04:35:13;;;;;;;42.97;40.17;;;;;;;15.75;100.00;101956.14;1941239;74;33572;-69
2021/10/27 04:40:37;;;;;;;42.17;39.33;;;;;;;15.75;100.00;101969.59;1941171;74;31055;-71
2021/10/27 04:46:01;;;;;;;44.30;41.20;;;;;;;15.60;100.00;101958.53;1941231;74;33093;-71
2021/10/27 04:51:26;;;;;;;43.47;40.50;;;;;;;15.72;100.00;101982.80;1941111;74;33061;-71
2021/10/27 04:56:50;;;;;;;44.07;41.13;;;;;;;15.69;100.00;101977.78;1940997;74;33086;-68
2021/10/27 05:02:16;;;;;;;44.27;41.10;;;;;;;15.63;100.00;101985.94;1940994;74;33085;-67
2021/10/27 05:07:44;;;;;;;45.30;41.83;;;;;;;15.70;100.00;101987.03;1941239;74;33095;-68
2021/10/27 05:13:09;;;;;;;46.20;42.80;;;;;;;15.68;100.00;101984.52;1941157;74;33183;-71
2021/10/27 05:18:33;;;;;;;45.43;42.20;;;;;;;15.57;100.00;101990.48;1941074;74;33080;-69
2021/10/27 05:23:58;;;;;;;43.63;40.63;;;;;;;15.66;100.00;101975.55;1941244;74;33534;-71
2021/10/27 05:29:22;;;;;;;44.77;41.77;;;;;;;15.63;100.00;101967.73;1941280;74;33187;-69
2021/10/27 05:34:46;;;;;;;45.77;42.53;;;;;;;15.61;100.00;101977.57;1941254;74;33502;-69
2021/10/27 05:40:13;;;;;;;43.47;40.40;;;;;;;15.61;100.00;101970.01;1941157;74;33014;-71
2021/10/27 05:45:38;;;;;;;44.03;41.10;;;;;;;15.61;100.00;101961.61;1941140;74;32985;-71
2021/10/27 05:51:15;;;;;;;45.23;42.07;;;;;;;15.61;100.00;101953.20;1941178;74;33186;-69
2021/10/27 05:56:37;;;;;;;43.83;40.90;;;;;;;15.64;100.00;101957.38;1941051;74;33121;-69
2021/10/27 06:02:02;;;;;;;44.10;41.00;;;;;;;15.64;100.00;101962.41;1941087;74;33078;-71
2021/10/27 06:07:27;;;;;;;44.10;41.20;;;;;;;15.66;100.00;101954.53;1941025;74;32989;-69
2021/10/27 06:13:02;;;;;;;43.43;40.53;;;;;;;15.69;100.00;101953.13;1941146;74;33175;-70
2021/10/27 06:18:25;;;;;;;44.47;41.57;;;;;;;15.72;100.00;101946.38;1941003;74;33057;-68
2021/10/27 06:23:50;;;;;;;43.03;40.17;;;;;;;15.73;100.00;101955.06;1907778;75;33149;-69
2021/10/27 06:29:21;;;;;;;44.13;41.27;;;;;;;15.77;100.00;101958.11;1941218;74;33516;-67
2021/10/27 06:34:45;;;;;;;44.10;41.23;;;;;;;15.85;100.00;101954.67;1941016;74;33041;-68
2021/10/27 06:51:34;;;;;;;44.27;41.37;;;;;;;15.84;100.00;101955.79;1941363;74;33501;-68
2021/10/27 06:56:59;;;;;;;45.80;42.60;;;;;;;15.82;100.00;101953.86;1941383;74;33554;-70
2021/10/27 07:19:55;;;;;;;47.17;43.97;;;;;;;15.56;100.00;101989.64;1941227;74;33075;-71
2021/10/27 07:25:19;;;;;;;45.40;42.10;;;;;;;15.56;100.00;101999.45;1941231;74;33009;-69
2021/10/27 07:30:46;;;;;;;47.00;43.80;;;;;;;15.63;100.00;102004.71;1941262;74;33083;-69
2021/10/27 07:36:24;;;;;;;46.87;43.67;;;;;;;15.63;100.00;102011.16;1941034;74;33070;-69
2021/10/27 07:41:36;;;;;;;44.20;41.20;;;;;;;15.59;100.00;102017.06;1941350;74;33491;-68
2021/10/27 07:47:01;;;;;;;45.87;42.57;;;;;;;15.62;100.00;102031.04;1941030;74;33006;-69
2021/10/27 07:52:26;;;;;;;45.97;42.67;;;;;;;15.62;100.00;102036.08;1941036;74;33128;-70
2021/10/27 07:57:51;;;;;;;44.73;41.50;;;;;;;15.64;100.00;102044.20;1940988;74;33072;-69
2021/10/27 08:03:18;;;;;;;44.43;41.57;;;;;;;15.66;100.00;102049.78;1941005;74;33169;-69
2021/10/27 08:08:44;;;;;;;44.50;41.33;;;;;;;15.68;100.00;102036.89;1941068;74;31059;-68
2021/10/27 08:14:27;;;;;;;45.30;42.30;;;;;;;15.69;100.00;102039.41;2010193;71;32871;-69
2021/10/27 08:19:52;;;;;;;45.17;42.13;;;;;;;15.70;100.00;102044.45;1940985;74;33087;-69
2021/10/27 08:25:22;;;;;;;44.10;40.97;;;;;;;15.72;100.00;102038.83;1941231;74;33485;-71
2021/10/27 08:30:51;;;;;;;43.97;40.77;;;;;;;15.80;100.00;102034.56;1941238;74;33574;-69
2021/10/27 08:36:14;;;;;;;43.60;40.50;;;;;;;15.78;100.00;102043.28;1941097;74;31103;-69
2021/10/27 08:41:40;;;;;;;43.53;40.37;;;;;;;15.80;100.00;102029.80;1941299;74;31099;-71
2021/10/27 08:47:05;;;;;;;42.07;39.07;;;;;;;15.82;100.00;102030.36;1941269;74;33523;-72
2021/10/27 08:52:30;;;;;;;41.37;38.23;;;;;;;15.93;100.00;102029.70;1941060;74;32989;-69
2021/10/27 08:57:56;;;;;;;42.70;39.60;;;;;;;15.99;100.00;102036.11;1941023;74;33143;-69
2021/10/27 09:03:27;;;;;;;43.03;39.80;;;;;;;16.00;100.00;102034.98;1941217;74;33592;-69
2021/10/27 09:09:21;;;;;;;45.33;41.77;;;;;;;15.96;100.00;102034.70;1941000;74;33091;-71
2021/10/27 09:15:06;;;;;;;41.83;38.63;;;;;;;16.08;100.00;102030.98;1941058;74;33098;-71
2021/10/27 09:37:42;;;;;;;44.03;40.53;;;;;;;16.08;100.00;102019.78;1941274;74;33579;-70
2021/10/27 09:43:30;;;;;;;44.00;40.70;;;;;;;16.03;100.00;102019.81;1941032;74;33092;-71
2021/10/27 09:55:48;;;;;;;43.93;40.53;;;;;;;15.91;100.00;102017.40;1941244;74;33118;-71
2021/10/27 10:06:59;;;;;;;42.30;39.10;;;;;;;16.11;100.00;102017.78;1941098;74;33135;-71
2021/10/27 10:12:23;;;;;;;40.97;38.03;;;;;;;16.23;100.00;102007.00;1941046;74;33162;-72
2021/10/27 10:17:52;;;;;;;42.93;40.03;;;;;;;16.20;100.00;102006.77;1941260;74;33576;-71
2021/10/27 10:23:21;;;;;;;40.60;37.50;;;;;;;16.31;100.00;102000.75;1940980;74;33153;-69
2021/10/27 10:28:47;;;;;;;39.53;36.80;;;;;;;16.34;100.00;101990.34;1941096;74;32979;-69
2021/10/27 10:34:43;;;;;;;38.60;36.10;;;;;;;16.38;100.00;101985.00;1941294;74;33686;-69
2021/10/27 10:56:43;;;;;;;33.27;31.07;;;;;;;16.72;100.00;101970.89;1941256;74;31519;-69
2021/10/27 11:26:30;;;;;;;33.53;31.40;;;;;;;17.19;100.00;101944.15;1941161;74;31003;-71
2021/10/27 11:37:44;;;;;;;35.67;33.07;;;;;;;17.32;100.00;101932.72;1941007;74;31085;-71
2021/10/27 11:43:28;;;;;;;35.40;33.17;;;;;;;17.20;100.00;101942.98;1941242;74;33438;-67
2021/10/27 11:48:56;;;;;;;38.17;35.70;;;;;;;17.22;100.00;101938.48;1941087;74;31120;-68
2021/10/27 11:54:21;;;;;;;37.77;35.67;;;;;;;17.07;100.00;101936.72;1941323;74;31639;-69
2021/10/27 11:59:49;;;;;;;36.87;34.97;;;;;;;17.06;100.00;101933.67;1941284;74;31535;-71
2021/10/27 12:05:27;;;;;;;36.80;34.57;;;;;;;17.10;100.00;101939.51;1941259;74;31522;-71
2021/10/27 12:11:32;;;;;;;37.47;35.13;;;;;;;17.20;100.00;101940.17;2014991;71;30918;-67
2021/10/27 12:17:25;;;;;;;36.50;34.33;;;;;;;17.03;100.00;101934.25;1941170;74;31150;-68
2021/10/27 12:22:58;;;;;;;37.13;35.03;;;;;;;16.96;100.00;101938.01;1941271;74;31537;-69
2021/10/27 12:28:29;;;;;;;36.60;34.30;;;;;;;17.01;100.00;101940.75;1941063;74;31020;-69
2021/10/27 12:33:53;;;;;;;40.77;38.17;;;;;;;16.98;100.00;101929.30;1941223;74;31544;-71
2021/10/27 12:39:24;;;;;;;39.03;36.57;;;;;;;16.92;100.00;101925.72;1940999;74;31094;-69
2021/10/27 12:44:56;;;;;;;41.07;38.40;;;;;;;16.93;100.00;101910.55;1941272;74;31627;-68
2021/10/27 12:50:21;;;;;;;36.93;34.70;;;;;;;16.98;100.00;101890.84;1941235;74;31587;-71
2021/10/27 12:55:48;;;;;;;36.43;34.07;;;;;;;17.12;100.00;101890.32;1941017;74;33041;-69
2021/10/27 13:01:28;;;;;;;35.93;33.60;;;;;;;17.11;100.00;101891.48;1941029;74;33118;-71
2021/10/27 13:07:06;;;;;;;32.83;30.80;;;;;;;17.15;100.00;101872.89;1941208;74;33052;-69
2021/10/27 13:12:56;;;;;;;30.37;28.70;;;;;;;17.30;100.00;101868.98;1941270;74;31105;-71
2021/10/27 13:30:15;;;;;;;28.17;26.50;;;;;;;17.44;100.00;101847.41;1941108;74;31200;-69
2021/10/27 13:35:39;;;;;;;28.00;26.20;;;;;;;17.61;100.00;101835.06;1941072;74;31067;-69
2021/10/27 13:41:07;;;;;;;27.30;25.40;;;;;;;17.71;100.00;101822.81;1941259;74;33570;-70
2021/10/27 13:46:49;;;;;;;27.63;26.03;;;;;;;17.54;100.00;101822.53;1941282;74;31031;-71
2021/10/27 13:58:08;;;;;;;26.90;25.23;;;;;;;17.51;100.00;101807.11;1941076;74;31036;-68
2021/10/27 14:09:15;;;;;;;30.10;28.27;;;;;;;17.29;100.00;101788.11;1941273;74;31073;-69
2021/10/27 14:14:41;;;;;;;31.17;28.70;;;;;;;17.34;100.00;101796.18;1941003;74;31140;-68
2021/10/27 14:40:43;;;;;;;32.43;30.37;;;;;;;17.22;100.00;101784.88;1941251;74;33485;-72
2021/10/27 15:20:37;;;;;;;35.87;33.53;;;;;;;17.17;100.00;101767.27;1941249;74;31031;-68
2021/10/27 15:32:15;;;;;;;37.73;35.43;;;;;;;17.09;100.00;101761.80;1941260;74;33532;-71
2021/10/27 15:43:40;;;;;;;33.97;32.00;;;;;;;16.81;100.00;101757.23;1941148;74;30998;-72
2021/10/27 15:54:48;;;;;;;36.33;34.40;;;;;;;16.78;100.00;101757.81;1941142;74;31094;-71
2021/10/27 16:00:14;;;;;;;36.67;34.50;;;;;;;16.72;100.00;101762.70;1941279;74;31654;-68
2021/10/27 16:05:41;;;;;;;35.73;33.33;;;;;;;16.61;100.00;101761.17;1941055;74;31071;-68
2021/10/27 16:11:07;;;;;;;36.60;34.20;;;;;;;16.71;100.00;101772.81;1941015;74;33056;-68
2021/10/27 16:16:32;;;;;;;37.93;35.53;;;;;;;16.54;100.00;101766.86;1940996;74;33049;-71
2021/10/27 16:21:59;;;;;;;38.57;36.37;;;;;;;16.59;100.00;101762.62;1941241;74;31296;-69
2021/10/27 16:27:22;;;;;;;39.57;37.27;;;;;;;16.53;100.00;101760.42;1941166;74;33183;-68
2021/10/27 16:32:47;;;;;;;36.73;34.43;;;;;;;16.51;100.00;101760.47;1941034;74;33091;-68
2021/10/27 16:38:11;;;;;;;35.80;33.60;;;;;;;16.47;100.00;101749.59;1972397;72;32897;-69
2021/10/27 16:43:37;;;;;;;37.80;35.40;;;;;;;16.45;100.00;101737.83;1941188;74;33035;-68
2021/10/27 16:49:02;;;;;;;37.37;34.90;;;;;;;16.42;100.00;101741.25;1941074;74;32959;-72
2021/10/27 16:54:26;;;;;;;37.73;35.43;;;;;;;16.35;100.00;101741.61;1941242;74;31038;-76
2021/10/27 16:59:51;;;;;;;36.33;34.23;;;;;;;16.19;100.00;101740.16;1941240;74;33442;-67
2021/10/27 17:05:16;;;;;;;37.77;35.47;;;;;;;16.06;100.00;101740.89;1880630;71;33663;-67
2021/10/27 17:10:41;;;;;;;36.90;34.60;;;;;;;16.03;100.00;101731.13;1941004;74;31125;-68
2021/10/27 17:16:07;;;;;;;37.30;35.07;;;;;;;16.05;100.00;101730.25;1941013;74;33041;-68
2021/10/27 17:21:32;;;;;;;34.40;32.20;;;;;;;16.07;100.00;101732.20;1941108;74;33234;-68
2021/10/27 17:26:58;;;;;;;36.40;34.10;;;;;;;16.03;100.00;101728.89;1941232;74;33551;-67
2021/10/27 17:32:23;;;;;;;39.07;36.80;;;;;;;15.86;100.00;101726.59;1941253;74;33514;-69
2021/10/27 17:37:50;;;;;;;39.80;37.40;;;;;;;15.92;100.00;101720.61;1941113;74;33002;-67
2021/10/27 17:43:16;;;;;;;39.50;37.10;;;;;;;16.01;100.00;101732.55;1941163;74;31064;-67
2021/10/27 17:48:48;;;;;;;42.07;39.43;;;;;;;15.90;100.00;101730.46;1941200;74;31091;-68
2021/10/27 18:00:13;;;;;;;42.60;39.97;;;;;;;15.97;100.00;101735.69;1941240;74;31606;-68
2021/10/27 18:05:37;;;;;;;42.27;39.57;;;;;;;16.02;100.00;101731.42;1941239;74;31614;-70
2021/10/27 18:11:06;;;;;;;40.80;38.13;;;;;;;16.05;100.00;101730.81;1941283;74;31629;-68
2021/10/27 18:16:36;;;;;;;38.67;36.17;;;;;;;16.11;100.00;101721.21;1941243;74;33467;-69
2021/10/27 18:22:05;;;;;;;40.07;37.70;;;;;;;16.08;100.00;101732.47;1941049;74;31137;-67
2021/10/27 18:38:58;;;;;;;40.20;37.80;;;;;;;16.03;100.00;101731.13;1940978;74;33009;-71
2021/10/27 18:44:20;;;;;;;41.60;39.10;;;;;;;15.99;100.00;101739.88;1941015;74;33080;-67
2021/10/27 18:49:45;;;;;;;39.27;36.87;;;;;;;16.02;100.00;101732.26;1941072;74;32974;-69
2021/10/27 18:55:17;;;;;;;43.30;40.67;;;;;;;15.93;100.00;101736.86;1941237;74;31519;-67
2021/10/27 19:00:55;;;;;;;42.10;39.60;;;;;;;15.89;100.00;101731.59;1941047;74;33003;-70
2021/10/27 19:11:57;;;;;;;41.47;38.97;;;;;;;15.87;100.00;101736.08;1941267;74;33506;-71
2021/10/27 19:17:24;;;;;;;42.90;40.30;;;;;;;15.80;100.00;101744.02;1941081;74;31054;-67
2021/10/27 19:22:50;;;;;;;41.63;39.03;;;;;;;15.78;100.00;101733.70;1941154;74;33508;-69
2021/10/27 19:28:45;;;;;;;42.27;39.57;;;;;;;15.87;100.00;101728.27;1997226;71;30835;-70
2021/10/27 20:20:50;;;;;;;45.73;42.63;;;;;;;15.84;100.00;101714.84;1941102;74;31050;-68
2021/10/27 20:49:46;;;;;;;52.37;49.07;;;;;;;15.86;100.00;101694.37;1941209;74;33521;-69
2021/10/27 20:55:08;;;;;;;52.00;48.73;;;;;;;15.87;100.00;101699.66;1940969;74;31171;-67
2021/10/27 21:00:37;;;;;;;50.93;48.03;;;;;;;15.90;100.00;101690.67;1941069;74;33069;-69
2021/10/27 21:17:27;;;;;;;52.13;49.13;;;;;;;15.74;100.00;101682.20;1941131;74;33001;-69
2021/10/27 21:22:52;;;;;;;51.17;47.97;;;;;;;15.82;100.00;101682.09;1941091;74;33036;-68
2021/10/27 21:28:30;;;;;;;53.73;50.37;;;;;;;15.79;100.00;101684.91;1941271;74;31605;-68
2021/10/27 21:45:16;;;;;;;53.50;50.10;;;;;;;15.77;100.00;101677.95;1941135;74;33078;-69
2021/10/27 21:50:41;;;;;;;54.03;50.47;;;;;;;15.66;100.00;101673.63;1941120;74;33000;-68
2021/10/27 21:56:13;;;;;;;53.90;50.03;;;;;;;15.73;100.00;101674.09;1941249;74;33563;-69
2021/10/27 22:01:32;;;;;;;53.57;50.00;;;;;;;15.67;100.00;101671.07;1941239;74;33591;-68
2021/10/27 22:06:57;;;;;;;53.60;50.43;;;;;;;15.66;100.00;101668.83;1941021;74;33076;-68
2021/10/27 22:23:36;;;;;;;50.40;47.00;;;;;;;15.65;100.00;101646.75;1901329;74;33017;-67
2021/10/27 22:26:06;;;;;;;48.47;45.13;;;;;;;15.59;100.00;101654.37;1842784;78;26646;-68
2021/10/27 22:28:37;;;;;;;46.77;43.60;;;;;;;15.55;100.00;101648.27;1842906;78;26210;-68
2021/10/27 22:31:08;;;;;;;51.40;48.13;;;;;;;15.47;100.00;101632.94;1878190;76;26228;-69
2021/10/27 22:33:38;;;;;;;51.00;47.40;;;;;;;15.47;100.00;101632.94;1878304;76;26189;-69
2021/10/27 22:36:08;;;;;;;50.23;46.80;;;;;;;15.47;100.00;101639.38;1878250;76;24226;-69
2021/10/27 22:38:40;;;;;;;50.90;47.50;;;;;;;15.44;100.00;101634.38;1878177;76;26707;-69
2021/10/27 22:41:11;;;;;;;49.50;46.13;;;;;;;15.46;100.00;101625.66;1878136;76;26269;-69
2021/10/27 22:43:41;;;;;;;48.27;44.67;;;;;;;15.46;100.00;101625.66;1878198;76;26234;-69
2021/10/27 22:46:11;;;;;;;51.90;48.37;;;;;;;15.48;100.00;101620.05;1878216;76;26264;-68
2021/10/27 22:48:41;;;;;;;52.13;48.50;;;;;;;15.44;100.00;101616.18;1878228;76;26231;-68
2021/10/27 22:51:12;;;;;;;52.47;48.77;;;;;;;15.43;100.00;101600.50;1878300;76;26274;-67
2021/10/27 22:53:42;;;;;;;48.60;45.10;;;;;;;15.43;100.00;101600.50;1878222;76;26243;-69
2021/10/27 22:56:12;;;;;;;49.20;45.77;;;;;;;15.41;100.00;101604.16;1878513;76;26224;-67
2021/10/27 22:58:46;;;;;;;45.90;42.70;;;;;;;15.42;100.00;101597.43;1878194;76;26740;-68
2021/10/27 23:01:18;;;;;;;47.73;44.17;;;;;;;15.38;100.00;101599.73;1877887;76;26245;-68
2021/10/27 23:04:00;;;;;;;49.23;45.70;;;;;;;15.43;100.00;101592.10;1878171;76;26238;-69
2021/10/27 23:06:32;;;;;;;47.40;44.30;;;;;;;15.43;100.00;101582.30;1876828;76;24180;-69
2021/10/27 23:09:16;;;;;;;49.03;45.83;;;;;;;15.44;100.00;101581.74;1877033;76;26192;-68
2021/10/27 23:40:01;;;;;;;49.73;46.33;;;;;;;15.27;100.00;101568.25;1877716;76;26333;-67
2021/10/27 23:45:25;;;;;;;49.60;46.17;;;;;;;15.26;100.00;101554.54;1941041;74;33094;-69
2021/10/27 23:50:51;;;;;;;51.20;47.90;;;;;;;15.28;100.00;101548.89;1941265;74;33537;-67
2021/10/27 23:56:24;;;;;;;49.77;46.10;;;;;;;15.23;100.00;101539.75;1941176;74;33502;-67
